Tartagal, Argentina
Current Conditions -  °F | °C
As of 9:00 PM on Friday 31 Oct 2014 (Local Time) from SLYA Reporting Station
Thunderstorm Thunderstorm  
Wind Chill: 72°   Ceiling: 7000
Heat Index: 72°   Visibility: 5mi
Dew Point: 66°   Wind: 9mph
Humidity: 83%   Direction: 180°S
Pressure: 29.71"   Gusts: NA
Location:  22.55°S, 63.81°W
Report Text: SLYA 010000Z 18008KT 8000 VCTS SCT020 FEW025CB OVC070 22/19 Q1006
Loading
Personal Weather Stations






























Interactive Weather Map
Tropical Storm Tracking
New forecast layout! Learn more

10-Day Weather Forecast

Advertisements
Track Severe Weather on mobile